Naples, North Carolina
Current Conditions -  °F | °C
As of 7:54 PM on Monday 22 Dec 2014 (Local Time) from KAVL Reporting Station
Light Rain Light Rain  
Wind Chill: 36°   Ceiling: 500
Heat Index: 40°   Visibility: 5mi
Dew Point: 38°   Wind: 6mph
Humidity: 93%   Direction: 180°S
Pressure: 29.98"   Gusts: NA
Location:  35.39°N, 82.5°W
Report Text: KAVL 230054Z 18005KT 5SM -RA BR OVC005 04/03 A2998 RMK AO2 RAB21 SLP156 P0002 T00440033
Loading
Personal Weather Stations






























Interactive Weather Map New forecast layout! Learn more

10-Day Weather Forecast

Advertisements
Track Severe Weather on mobile